No se requiere un especial cuidado respecto a la situación meteorológica.   -   No hay avisos

Informes METAR

 

LEZL - Sevilla, Spain
Distancia de la estación: ENE 8km
Actualización: 02/03/2015 01:00
Despejado
Despejado
 Viento de SE
Viento: SE 4 km/h
Temperatura: 10°C
Rocío: 9°C
Humedad: 94%
Barómetro: 1027 hPa
Resumen: Despejado
Visibilidad: mayor de 10 km
2015/03/02 00:00 LEZL 020000Z 14002KT CAVOK 10/09 Q1027 NOSIG
LEMO - Morón, Spain
Distancia de la estación: SE 43km
Actualización: 02/03/2015 01:00
Despejado
Despejado
 Viento de calm
Viento: Calma
Temperatura: 10°C
Rocío: 8°C
Humedad: 88%
Barómetro: 1027 hPa
Resumen: Despejado
Visibilidad: mayor de 10 km
2015/03/02 00:00 LEMO 020000Z 00000KT CAVOK 10/08 Q1027 NOSIG
LEJR - Jeréz, Spain
Distancia de la estación: S 71km
Actualización: 01/03/2015 23:00
NOT Current
Despejado
Despejado
 Viento de calm
Viento: Calma
Temperatura: 11°C
Rocío: 10°C
Humedad: 94%
Barómetro: 1027 hPa
Resumen: Despejado
Visibilidad: mayor de 10 km
2015/03/01 22:00 LEJR 012200Z 00000KT CAVOK 11/10 Q1027
 
LERT - Rota, Spain
Distancia de la estación: SSO 89km
Actualización: 02/03/2015 01:00
Despejado
Despejado
 Viento de calm
Viento: Calma
Temperatura: 12°C
Rocío: 11°C
Humedad: 94%
Barómetro: 1026 hPa
Resumen: Despejado
Visibilidad: mayor de 10 km
2015/03/02 00:00 LERT 020000Z 00000KT CAVOK 12/11 Q1026 NOSIG
LEMG - Málaga, Spain
Distancia de la estación: ESE 157km
Actualización: 02/03/2015 01:30
Poco nuboso
Poco nuboso
 Viento de O
Viento: O 26 km/h
Temperatura: 17°C
Rocío: 9°C
Humedad: 59%
Barómetro: 1025 hPa
Nubes: Poco nuboso
Visibilidad: 10 km
Detalles de las nubes: Poco nuboso 914 m
2015/03/02 00:30 LEMG 020030Z 27014KT 9999 FEW030 17/09 Q1025 NOSIG
LEBA - Córdoba, Spain
Distancia de la estación: ENE 115km
Actualización: 01/03/2015 20:00
NOT Current
Despejado
Despejado
 Viento de NNO
Viento: NNO 2 km/h
Temperatura: 17°C
Rocío: 9°C
Humedad: 59%
Barómetro: 1025 hPa
Resumen: Despejado
Visibilidad: mayor de 10 km
2015/03/01 19:00 LEBA 011900Z 33001KT CAVOK 17/09 Q1025
 
LEGR - Granada, Spain
Distancia de la estación: E 198km
Actualización: 01/03/2015 23:00
NOT Current
Despejado
Despejado
 Viento de variable
Viento: variable 2 km/h
Temperatura: 10°C
Rocío: 8°C
Humedad: 88%
Barómetro: 1027 hPa
Resumen: Despejado
Visibilidad: mayor de 10 km
2015/03/01 22:00 LEGR 012200Z VRB01KT CAVOK 10/08 Q1027
LEAM - Almería, Spain
Distancia de la estación: E 326km
Actualización: 01/03/2015 22:30
NOT Current
Despejado
Despejado
 Viento de calm
Viento: Calma
Temperatura: 14°C
Rocío: 13°C
Humedad: 94%
Barómetro: 1024 hPa
Resumen: Despejado
Visibilidad: mayor de 10 km
2015/03/01 21:30 LEAM 012130Z 00000KT CAVOK 14/13 Q1024
LEMD - Madrid/Barajas, Spain
Distancia de la estación: NNE 402km
Actualización: 02/03/2015 01:30
Despejado
Despejado
 Viento de SO
Viento: SO 9 km/h
Temperatura: 12°C
Rocío: 9°C
Humedad: 82%
Barómetro: 1025 hPa
Resumen: Despejado
Visibilidad: mayor de 10 km
2015/03/02 00:30 LEMD 020030Z 22005KT 180V260 CAVOK 12/09 Q1025 NOSIG
 
LEVD - Valladolid, Spain
Distancia de la estación: N 492km
Actualización: 01/03/2015 21:30
NOT Current
Muy nuboso
Muy nuboso
 Viento de OSO
Viento: OSO 22 km/h
Temperatura: 11°C
Rocío: 9°C
Humedad: 88%
Barómetro: 1024 hPa
Nubes: Muy nuboso
Visibilidad: 10 km
Detalles de las nubes: Muy nuboso 457 m
2015/03/01 20:30 LEVD 012030Z 25012KT 9999 BKN015 11/09 Q1024
LEBL - Barcelona, Spain
Distancia de la estación: NE 816km
Actualización: 02/03/2015 01:30
Poco nuboso
Poco nuboso
 Viento de SO
Viento: SO 15 km/h
Temperatura: 14°C
Rocío: 10°C
Humedad: 77%
Barómetro: 1019 hPa
Nubes: Poco nuboso
Visibilidad: 10 km
Detalles de las nubes: Poco nuboso 1219 m
2015/03/02 00:30 LEBL 020030Z 22008KT 9999 FEW040 14/10 Q1019 NOSIG
LEVC - Valencia, Spain
Distancia de la estación: ENE 535km
Actualización: 02/03/2015 01:30
Despejado
Despejado
 Viento de OSO
Viento: OSO 15 km/h
Temperatura: 17°C
Rocío: 8°C
Humedad: 56%
Barómetro: 1021 hPa
Resumen: Despejado
Visibilidad: mayor de 10 km
2015/03/02 00:30 LEVC 020030Z 25008KT CAVOK 17/08 Q1021 NOSIG